Time;durP1;ratioP1;P1;durP2;ratioP2;P2;SDS_P1;SDS_P2;PMS_P1;PMS_P2;Temp;Humidity;BMP_temperature;BMP_pressure;BME280_temperature;BME280_humidity;BME280_pressure;Samples;Min_cycle;Max_cycle;Signal;HPM_P1;HPM_P2
2021/05/02 00:04:57;;;;;;;20.33;4.70;;;;;;;18.20;100.00;94244.34;10406089;28;20083;-80
2021/05/02 00:09:58;;;;;;;10.93;3.45;;;;;;;18.14;100.00;94226.63;10406579;28;20104;-78
2021/05/02 00:14:59;;;;;;;16.33;4.65;;;;;;;18.12;100.00;94226.97;10405917;28;20380;-78
2021/05/02 00:20:00;;;;;;;18.85;3.53;;;;;;;18.03;100.00;94220.78;10405522;28;20021;-79
2021/05/02 00:25:05;;;;;;;11.88;4.47;;;;;;;18.02;100.00;94221.94;10406078;28;20686;-79
2021/05/02 00:30:06;;;;;;;16.40;3.75;;;;;;;18.06;100.00;94212.78;10405444;28;20171;-79
2021/05/02 00:35:08;;;;;;;19.38;4.90;;;;;;;18.08;100.00;94202.38;10405797;28;20151;-79
2021/05/02 00:40:15;;;;;;;15.35;3.83;;;;;;;17.83;100.00;94208.78;10387277;28;20108;-79
2021/05/02 00:45:41;;;;;;;10.20;3.67;;;;;;;17.93;100.00;94198.34;10404838;28;20072;-79
2021/05/02 00:50:51;;;;;;;12.13;3.92;;;;;;;17.72;100.00;94197.50;10390023;28;20072;-80
2021/05/02 00:55:57;;;;;;;11.13;4.38;;;;;;;17.83;100.00;94171.50;10406282;28;20025;-79
2021/05/02 01:01:00;;;;;;;10.43;3.80;;;;;;;17.91;100.00;94175.34;10404380;28;20365;-80
2021/05/02 01:06:10;;;;;;;12.93;3.25;;;;;;;17.88;100.00;94146.06;10402496;28;20018;-80
2021/05/02 01:11:14;;;;;;;18.08;3.72;;;;;;;17.92;100.00;94163.34;10401319;28;20021;-80
2021/05/02 01:16:17;;;;;;;16.92;4.00;;;;;;;17.93;100.00;94154.03;10403564;28;20026;-79
2021/05/02 01:21:18;;;;;;;15.10;3.67;;;;;;;17.84;100.00;94154.09;10386358;28;20373;-79
2021/05/02 01:26:18;;;;;;;15.95;3.40;;;;;;;17.92;100.00;94149.75;10403708;28;20029;-79
2021/05/02 01:31:19;;;;;;;24.50;4.20;;;;;;;17.92;100.00;94147.81;10403111;28;20778;-79
2021/05/02 01:36:20;;;;;;;12.25;3.83;;;;;;;17.96;100.00;94130.81;10401961;28;20025;-79
2021/05/02 01:41:21;;;;;;;13.48;3.33;;;;;;;17.89;100.00;94113.13;10402977;28;20155;-79
2021/05/02 01:46:40;;;;;;;13.93;3.72;;;;;;;17.87;100.00;94115.34;10402329;28;20087;-79
2021/05/02 01:51:40;;;;;;;21.25;4.20;;;;;;;17.87;100.00;94123.50;10402348;28;20440;-79
2021/05/02 01:56:41;;;;;;;11.20;3.28;;;;;;;17.93;100.00;94130.38;10401972;28;20065;-80
2021/05/02 02:01:42;;;;;;;17.98;4.18;;;;;;;17.64;100.00;94147.56;10407020;28;20440;-78
2021/05/02 02:06:43;;;;;;;14.93;3.87;;;;;;;17.56;100.00;94141.06;10390384;28;20116;-78
2021/05/02 02:11:43;;;;;;;16.15;3.85;;;;;;;17.39;100.00;94138.47;10409256;28;20160;-78
2021/05/02 02:16:44;;;;;;;16.13;4.25;;;;;;;17.25;100.00;94136.81;10408696;28;20033;-79
2021/05/02 02:21:50;;;;;;;14.15;4.20;;;;;;;17.13;100.00;94166.59;10407885;28;20448;-79
2021/05/02 02:26:57;;;;;;;10.77;3.45;;;;;;;17.15;100.00;94133.69;10409102;28;20021;-79
2021/05/02 02:32:04;;;;;;;16.25;4.43;;;;;;;16.99;100.00;94149.75;10409397;28;20407;-79
2021/05/02 02:37:05;;;;;;;18.20;5.82;;;;;;;16.97;100.00;94141.94;10409819;28;20025;-79
2021/05/02 02:42:07;;;;;;;11.20;3.83;;;;;;;16.96;100.00;94137.63;10408307;28;20090;-80
2021/05/02 02:47:11;;;;;;;15.15;5.03;;;;;;;16.87;100.00;94128.69;10405535;28;20033;-79
2021/05/02 02:52:17;;;;;;;13.18;4.95;;;;;;;16.92;100.00;94137.47;10407491;28;20111;-79
2021/05/02 02:57:20;;;;;;;15.48;4.38;;;;;;;16.94;100.00;94147.22;10407901;28;20061;-78
2021/05/02 03:02:22;;;;;;;27.70;4.88;;;;;;;16.94;100.00;94144.50;10408838;28;20488;-80
2021/05/02 03:07:23;;;;;;;13.93;4.53;;;;;;;16.90;100.00;94156.03;10410175;28;20033;-79
2021/05/02 03:12:24;;;;;;;15.70;4.57;;;;;;;16.88;100.00;94139.28;10392046;28;20038;-80
2021/05/02 03:17:30;;;;;;;22.00;5.18;;;;;;;16.75;100.00;94135.63;10407844;28;20029;-79
2021/05/02 03:22:49;;;;;;;13.43;5.53;;;;;;;16.75;100.00;94151.13;10407751;28;20030;-79
2021/05/02 03:27:56;;;;;;;11.60;4.38;;;;;;;16.39;100.00;94146.94;10410402;28;20021;-80
2021/05/02 03:33:04;;;;;;;16.15;5.80;;;;;;;16.38;100.00;94132.59;10390337;28;20025;-79
2021/05/02 03:38:23;;;;;;;14.40;4.43;;;;;;;16.41;100.00;94158.28;10408879;28;20025;-79
2021/05/02 03:43:24;;;;;;;21.95;7.68;;;;;;;16.30;100.00;94162.44;10407941;28;20045;-80
2021/05/02 03:48:25;;;;;;;18.02;4.65;;;;;;;16.14;100.00;94160.25;10408428;28;20380;-80
2021/05/02 03:53:26;;;;;;;14.95;4.75;;;;;;;16.33;100.00;94149.03;10390248;28;20025;-80
2021/05/02 03:58:26;;;;;;;17.75;5.25;;;;;;;16.35;100.00;94167.69;10407857;28;20033;-80
2021/05/02 04:03:26;;;;;;;20.10;6.50;;;;;;;16.35;100.00;94167.69;10407491;28;20662;-80
2021/05/02 04:08:28;;;;;;;22.93;5.47;;;;;;;16.52;100.00;94153.28;10406716;28;20029;-80
2021/05/02 04:13:29;;;;;;;20.48;4.97;;;;;;;16.72;100.00;94154.50;10401463;28;20036;-80
2021/05/02 04:18:32;;;;;;;12.63;4.30;;;;;;;16.78;100.00;94150.47;10404520;28;20377;-80
2021/05/02 04:23:34;;;;;;;15.15;5.50;;;;;;;17.03;100.00;94145.25;10403795;28;20017;-80
2021/05/02 04:28:34;;;;;;;20.85;6.40;;;;;;;17.21;100.00;94145.94;10405644;28;20033;-80
2021/05/02 04:33:34;;;;;;;12.70;5.97;;;;;;;17.23;100.00;94149.94;10405295;28;20032;-80
2021/05/02 04:38:35;;;;;;;13.37;4.40;;;;;;;17.45;100.00;94142.56;10404876;28;20025;-80
2021/05/02 04:43:35;;;;;;;18.92;6.20;;;;;;;17.21;100.00;94143.22;10404317;28;20371;-80
2021/05/02 04:48:36;;;;;;;15.33;5.83;;;;;;;17.22;100.00;94142.13;10405228;28;20029;-80
2021/05/02 04:53:36;;;;;;;11.40;3.93;;;;;;;18.00;100.00;94157.03;10404554;28;20033;-80
2021/05/02 04:58:36;;;;;;;14.57;4.68;;;;;;;18.92;100.00;94160.50;10404481;28;20040;-80
2021/05/02 05:03:37;;;;;;;18.70;4.53;;;;;;;19.72;100.00;94141.09;10404401;28;20032;-80
2021/05/02 05:08:41;;;;;;;13.57;3.60;;;;;;;20.37;100.00;94118.31;10402737;28;20283;-78
2021/05/02 05:13:41;;;;;;;13.10;4.40;;;;;;;20.86;100.00;94115.28;10399762;28;20674;-75
2021/05/02 05:18:41;;;;;;;20.33;5.77;;;;;;;20.95;100.00;94118.59;10400204;28;20021;-75
2021/05/02 05:23:42;;;;;;;20.58;4.53;;;;;;;21.15;100.00;94124.94;10400697;28;21119;-76
2021/05/02 05:28:42;;;;;;;18.53;4.50;;;;;;;20.87;100.00;94137.91;10400604;28;20052;-75
2021/05/02 05:33:43;;;;;;;14.40;4.67;;;;;;;21.24;100.00;94146.59;10400383;28;20501;-76
2021/05/02 05:38:43;;;;;;;15.27;4.25;;;;;;;20.66;100.00;94158.81;10400473;28;20037;-76
2021/05/02 05:43:43;;;;;;;12.10;3.63;;;;;;;21.33;100.00;94160.84;10399649;28;20045;-74
2021/05/02 05:48:44;;;;;;;19.93;5.53;;;;;;;21.94;98.72;94157.88;10400521;28;20303;-74
2021/05/02 05:53:44;;;;;;;14.37;4.37;;;;;;;22.63;92.81;94152.56;10400198;28;20033;-75
2021/05/02 05:58:45;;;;;;;20.38;4.65;;;;;;;23.25;91.36;94143.41;10399066;28;20288;-75
2021/05/02 06:03:45;;;;;;;14.00;3.60;;;;;;;23.62;86.86;94142.72;10399889;28;20152;-75
2021/05/02 06:08:45;;;;;;;18.23;4.63;;;;;;;23.72;83.28;94141.28;10399430;28;20128;-75
2021/05/02 06:13:46;;;;;;;10.47;3.87;;;;;;;23.51;84.11;94150.84;10399582;28;20029;-74
2021/05/02 06:18:46;;;;;;;9.70;3.50;;;;;;;22.92;87.13;94142.06;10399165;28;20029;-75
2021/05/02 06:23:48;;;;;;;23.57;4.57;;;;;;;22.70;85.15;94147.19;10399619;28;20091;-76
2021/05/02 06:28:50;;;;;;;12.80;3.30;;;;;;;22.67;89.84;94145.16;10400117;28;20029;-76
2021/05/02 06:33:51;;;;;;;13.57;3.78;;;;;;;22.45;88.72;94144.03;10393988;28;20021;-77
2021/05/02 06:38:51;;;;;;;16.67;4.13;;;;;;;22.40;89.72;94163.47;10369508;28;20412;-77
2021/05/02 06:43:51;;;;;;;18.87;3.37;;;;;;;22.60;81.46;94160.69;10400516;28;20295;-78
2021/05/02 06:48:52;;;;;;;16.80;3.23;;;;;;;22.94;87.94;94145.25;10405937;28;20473;-77
2021/05/02 06:53:53;;;;;;;14.95;4.38;;;;;;;23.13;83.18;94138.13;10374638;28;20456;-77
2021/05/02 06:58:54;;;;;;;14.47;3.93;;;;;;;23.49;79.43;94138.66;10348468;28;20034;-78
2021/05/02 07:03:55;;;;;;;12.32;4.07;;;;;;;23.68;79.00;94115.75;10365758;28;20380;-76
2021/05/02 07:08:55;;;;;;;8.30;3.55;;;;;;;23.85;67.86;94147.34;10368618;28;20109;-78
2021/05/02 07:13:56;;;;;;;11.20;3.70;;;;;;;23.97;69.99;94132.63;10368637;28;20026;-77
2021/05/02 07:18:56;;;;;;;12.90;3.43;;;;;;;24.00;64.06;94137.34;10368826;28;20022;-77
2021/05/02 07:23:57;;;;;;;11.57;3.90;;;;;;;24.66;57.95;94167.94;10366171;28;20033;-78
2021/05/02 07:28:57;;;;;;;22.70;3.83;;;;;;;24.82;62.59;94158.66;10386806;28;20021;-77
2021/05/02 07:33:57;;;;;;;10.50;3.43;;;;;;;24.85;62.59;94182.63;10404612;28;20113;-77
2021/05/02 07:38:58;;;;;;;15.10;3.47;;;;;;;24.73;58.71;94191.94;10404951;28;20159;-77
2021/05/02 07:43:59;;;;;;;15.70;4.03;;;;;;;24.63;64.17;94198.91;10405888;28;20848;-78
2021/05/02 07:48:59;;;;;;;14.80;4.78;;;;;;;24.36;60.02;94203.69;10404763;28;20029;-78
2021/05/02 07:54:00;;;;;;;18.80;4.20;;;;;;;24.22;62.98;94205.09;10404224;28;20407;-78
2021/05/02 07:59:01;;;;;;;24.15;4.93;;;;;;;24.17;62.37;94208.19;10404354;28;20481;-78
2021/05/02 08:04:01;;;;;;;16.63;3.95;;;;;;;24.28;63.50;94202.81;10403958;28;20095;-78
2021/05/02 08:09:02;;;;;;;16.13;4.93;;;;;;;24.09;65.53;94200.22;10403550;28;20472;-78
2021/05/02 08:14:03;;;;;;;18.20;5.40;;;;;;;24.04;65.74;94198.59;10403487;28;20363;-77
2021/05/02 08:19:03;;;;;;;20.80;4.75;;;;;;;24.20;67.72;94196.44;10403754;28;20034;-78
2021/05/02 08:24:04;;;;;;;13.75;3.85;;;;;;;24.45;68.09;94201.44;10402875;28;20018;-77
2021/05/02 08:29:04;;;;;;;16.25;3.70;;;;;;;24.70;67.50;94212.72;10364199;28;20018;-77
2021/05/02 08:34:05;;;;;;;15.18;4.88;;;;;;;25.27;68.08;94210.88;10360488;28;20481;-77
2021/05/02 08:39:05;;;;;;;21.40;5.07;;;;;;;25.86;65.41;94210.94;10360246;28;20025;-77
2021/05/02 08:44:06;;;;;;;15.80;3.00;;;;;;;27.87;53.28;94196.06;10343789;28;20053;-77
2021/05/02 08:49:07;;;;;;;21.33;4.22;;;;;;;27.97;48.69;94209.81;10361369;28;20484;-78
2021/05/02 08:54:07;;;;;;;18.30;3.20;;;;;;;29.42;41.94;94192.56;10361067;28;20059;-78
2021/05/02 08:59:08;;;;;;;19.83;4.63;;;;;;;30.49;42.55;94187.94;10362154;28;20044;-78
2021/05/02 09:04:09;;;;;;;21.20;4.53;;;;;;;31.14;40.74;94184.28;10343594;28;20026;-77
2021/05/02 09:09:12;;;;;;;20.83;3.60;;;;;;;32.85;37.72;94155.00;10359923;28;20030;-78
2021/05/02 09:14:22;;;;;;;19.00;3.70;;;;;;;34.95;34.62;94158.69;10364447;28;20025;-77
2021/05/02 09:19:25;;;;;;;16.20;2.92;;;;;;;36.31;31.48;94145.06;10359388;28;20549;-77
2021/05/02 09:24:31;;;;;;;15.13;3.38;;;;;;;37.49;27.25;94126.94;10360358;28;20814;-77
2021/05/02 09:29:33;;;;;;;16.10;2.92;;;;;;;38.77;26.12;94121.81;10384972;28;20388;-77
2021/05/02 09:34:34;;;;;;;13.23;2.63;;;;;;;39.65;24.60;94123.59;10400544;28;20483;-77
2021/05/02 09:39:42;;;;;;;13.90;3.20;;;;;;;40.43;20.70;94113.63;10400139;28;20033;-77
2021/05/02 09:44:54;;;;;;;15.95;3.05;;;;;;;41.55;21.54;94104.69;10399993;28;20049;-79
2021/05/02 09:50:20;;;;;;;14.75;2.38;;;;;;;41.21;20.12;94093.69;10399960;28;20040;-77
2021/05/02 09:55:26;;;;;;;11.18;2.63;;;;;;;39.64;22.34;94079.09;10400425;28;20026;-77
2021/05/02 10:00:54;;;;;;;11.30;2.08;;;;;;;40.75;19.85;94088.56;10401892;28;20032;-75
2021/05/02 10:06:00;;;;;;;19.67;3.25;;;;;;;38.41;22.75;94079.28;10399353;28;20449;-79
2021/05/02 10:11:06;;;;;;;19.58;2.88;;;;;;;38.53;23.58;94071.94;10399541;28;20025;-78
2021/05/02 10:16:07;;;;;;;16.98;2.65;;;;;;;39.99;20.84;94068.03;10399128;28;20392;-79
2021/05/02 10:21:09;;;;;;;19.63;2.63;;;;;;;37.13;21.39;94059.09;10402375;28;20033;-79
2021/05/02 10:26:09;;;;;;;12.20;2.97;;;;;;;39.93;21.49;94055.88;10409224;28;20032;-76
2021/05/02 10:31:10;;;;;;;18.63;2.60;;;;;;;40.25;20.45;94053.41;10367998;28;20022;-76
2021/05/02 10:36:17;;;;;;;13.85;3.22;;;;;;;37.28;23.55;94062.13;10365867;28;20026;-76
2021/05/02 10:41:33;;;;;;;16.35;2.20;;;;;;;36.44;24.44;94072.22;10366546;28;20413;-76
2021/05/02 10:46:53;;;;;;;14.48;2.50;;;;;;;37.47;23.28;94068.56;10365935;28;20065;-77
2021/05/02 10:51:55;;;;;;;13.05;3.10;;;;;;;38.00;22.23;94061.09;10365901;28;20038;-79
2021/05/02 10:56:58;;;;;;;12.15;2.65;;;;;;;37.31;24.19;94049.97;10366613;28;20069;-78
2021/05/02 11:02:45;;;;;;;19.83;2.58;;;;;;;35.41;24.12;94039.88;10385915;28;20102;-79
2021/05/02 11:07:48;;;;;;;16.15;3.50;;;;;;;35.45;25.24;94033.41;10386374;28;20854;-78
2021/05/02 11:12:48;;;;;;;16.55;2.67;;;;;;;34.18;28.09;94014.25;10389595;28;20057;-78
2021/05/02 11:17:53;;;;;;;12.50;2.53;;;;;;;32.61;28.70;94029.06;10386813;28;20120;-78
2021/05/02 11:22:53;;;;;;;16.98;3.33;;;;;;;31.84;29.49;94021.59;10367362;28;20116;-78
2021/05/02 11:27:57;;;;;;;22.07;3.10;;;;;;;30.58;29.41;94026.56;10402253;28;20022;-79
2021/05/02 11:32:58;;;;;;;10.45;2.75;;;;;;;31.22;30.51;94021.19;10410352;28;20026;-79
2021/05/02 11:38:05;;;;;;;14.50;2.47;;;;;;;29.93;31.73;94023.91;10411769;28;20033;-79
2021/05/02 11:43:17;;;;;;;10.95;2.80;;;;;;;29.70;30.25;94017.03;10421581;28;20207;-79
2021/05/02 11:48:29;;;;;;;12.07;2.30;;;;;;;29.70;31.39;93999.66;10453076;28;20116;-79
2021/05/02 11:53:34;;;;;;;17.42;2.42;;;;;;;29.90;28.69;93991.50;10452045;28;20116;-79
2021/05/02 11:58:34;;;;;;;19.10;2.53;;;;;;;29.94;29.47;93986.69;10450240;28;20120;-79
2021/05/02 12:03:38;;;;;;;14.33;2.90;;;;;;;29.90;28.79;93969.34;10450875;28;20024;-79
2021/05/02 12:08:39;;;;;;;14.15;2.63;;;;;;;29.75;28.03;93952.88;10450522;28;20024;-79
2021/05/02 12:13:42;;;;;;;17.33;2.30;;;;;;;29.77;28.71;93969.09;10451606;28;20033;-79
2021/05/02 12:18:55;;;;;;;13.80;2.13;;;;;;;29.80;26.58;93965.47;10434324;28;20140;-79
2021/05/02 12:24:14;;;;;;;15.23;2.30;;;;;;;29.46;28.03;93971.84;10451237;28;20082;-79
2021/05/02 12:29:18;;;;;;;20.75;2.70;;;;;;;29.72;29.01;93972.31;10427863;28;20025;-79
2021/05/02 12:34:24;;;;;;;11.63;2.25;;;;;;;29.40;27.97;93966.00;10409429;28;20029;-79
2021/05/02 12:39:33;;;;;;;13.63;3.42;;;;;;;29.46;30.18;93972.63;10410134;28;20101;-79
2021/05/02 12:44:35;;;;;;;13.80;2.28;;;;;;;29.09;30.89;93974.19;10408891;28;20180;-79
2021/05/02 12:49:35;;;;;;;25.05;3.58;;;;;;;29.11;30.78;93977.34;10409153;28;20024;-79
2021/05/02 12:54:36;;;;;;;14.90;2.73;;;;;;;29.15;30.44;93955.94;10410072;28;20025;-79
2021/05/02 12:59:45;;;;;;;17.43;2.87;;;;;;;29.14;31.20;93970.19;10408853;28;20346;-79
2021/05/02 13:04:46;;;;;;;16.77;2.85;;;;;;;29.14;29.14;93954.38;10408379;28;20032;-79
2021/05/02 13:09:46;;;;;;;18.33;3.50;;;;;;;29.11;29.62;93957.97;10391371;28;20400;-79
2021/05/02 13:15:26;;;;;;;21.70;2.83;;;;;;;28.81;31.30;93953.13;10408667;28;20567;-79
2021/05/02 13:20:48;;;;;;;14.55;2.90;;;;;;;28.78;30.37;93962.25;10290049;28;20048;-79
2021/05/02 13:25:49;;;;;;;17.73;3.55;;;;;;;28.59;28.73;93963.56;10408594;28;20025;-79
2021/05/02 13:30:50;;;;;;;12.40;2.53;;;;;;;28.68;28.34;93983.28;10371805;28;20404;-80
2021/05/02 13:35:50;;;;;;;20.70;2.92;;;;;;;29.03;28.44;93970.31;10349184;28;20420;-79
2021/05/02 13:40:51;;;;;;;14.07;2.80;;;;;;;29.08;29.29;93960.75;10366732;28;20098;-78
2021/05/02 13:45:51;;;;;;;13.90;2.75;;;;;;;29.36;29.71;93954.16;10366301;28;20053;-77
2021/05/02 13:50:52;;;;;;;19.13;3.20;;;;;;;29.21;27.10;93961.81;10348659;28;20038;-77
2021/05/02 13:55:54;;;;;;;18.53;2.77;;;;;;;29.09;27.32;93967.88;10370367;28;20095;-79
2021/05/02 14:00:55;;;;;;;25.33;2.70;;;;;;;28.64;27.56;93977.00;10375214;28;20041;-79
2021/05/02 14:05:56;;;;;;;24.92;3.70;;;;;;;28.69;29.43;93971.03;10375048;28;20026;-78
2021/05/02 14:10:56;;;;;;;16.33;2.38;;;;;;;28.67;30.09;93986.47;10374143;28;20484;-79
2021/05/02 14:15:58;;;;;;;15.77;3.20;;;;;;;28.72;29.18;93992.34;10374394;28;20038;-78
2021/05/02 14:20:58;;;;;;;20.98;2.95;;;;;;;28.50;29.58;94002.75;10374087;28;20453;-78
2021/05/02 14:26:00;;;;;;;27.80;4.20;;;;;;;28.63;28.09;93992.81;10373511;28;20017;-78
2021/05/02 14:31:00;;;;;;;32.15;9.57;;;;;;;28.68;29.04;94001.88;10410884;28;20318;-78
2021/05/02 14:36:01;;;;;;;16.13;2.60;;;;;;;28.58;28.61;93995.97;10414065;28;20113;-78
2021/05/02 14:41:02;;;;;;;14.38;3.08;;;;;;;28.43;27.85;93997.28;10413776;28;20036;-79
2021/05/02 14:46:02;;;;;;;21.70;4.40;;;;;;;28.43;28.13;93994.53;10414283;28;20041;-78
2021/05/02 14:51:03;;;;;;;21.63;5.15;;;;;;;28.33;31.22;93998.13;10395555;28;20488;-78
2021/05/02 14:56:04;;;;;;;18.80;6.95;;;;;;;28.11;29.57;93998.28;10413173;28;20116;-78
2021/05/02 15:01:04;;;;;;;13.55;6.47;;;;;;;27.87;30.56;94002.75;10413420;28;20028;-79
2021/05/02 15:06:04;;;;;;;23.10;4.53;;;;;;;27.99;30.20;93994.00;10412272;28;20040;-78
2021/05/02 15:11:05;;;;;;;30.10;7.07;;;;;;;28.13;29.60;93993.94;10412417;28;20030;-79
2021/05/02 15:16:05;;;;;;;21.60;6.07;;;;;;;27.80;31.01;93993.28;10412465;28;20033;-79
2021/05/02 15:21:06;;;;;;;44.00;17.80;;;;;;;27.72;30.97;93999.25;10412181;28;20773;-78
2021/05/02 15:26:06;;;;;;;25.30;7.18;;;;;;;27.56;33.41;94008.00;10412022;28;20083;-78
2021/05/02 15:31:07;;;;;;;20.57;4.63;;;;;;;27.57;31.38;94006.81;10373308;28;20043;-78
2021/05/02 15:36:07;;;;;;;25.13;6.47;;;;;;;27.60;33.34;94006.00;10370440;28;20053;-78
2021/05/02 15:41:07;;;;;;;42.80;11.33;;;;;;;27.40;32.51;94017.50;10370773;28;20754;-78
2021/05/02 15:46:08;;;;;;;18.50;3.57;;;;;;;27.53;31.96;94006.03;10370388;28;20092;-79
2021/05/02 15:51:08;;;;;;;15.00;4.10;;;;;;;27.49;31.47;94005.25;10370179;28;20037;-78
2021/05/02 15:56:09;;;;;;;20.13;4.40;;;;;;;27.38;32.42;94010.81;10369896;28;20550;-79
2021/05/02 16:01:09;;;;;;;24.57;10.63;;;;;;;27.32;32.60;94009.63;10369733;28;20113;-78
2021/05/02 16:06:10;;;;;;;19.58;6.47;;;;;;;27.14;33.01;94023.47;10369523;28;20501;-78
2021/05/02 16:11:10;;;;;;;34.03;14.00;;;;;;;26.94;33.36;94023.91;10369678;28;20087;-78
2021/05/02 16:16:13;;;;;;;27.08;10.88;;;;;;;26.71;33.58;94018.78;10369506;28;20022;-78
2021/05/02 16:21:13;;;;;;;27.02;7.00;;;;;;;26.75;33.77;94031.41;10367956;28;20481;-78
2021/05/02 16:26:14;;;;;;;21.50;8.85;;;;;;;26.75;32.89;94028.66;10368570;28;20037;-78
2021/05/02 16:31:15;;;;;;;16.17;3.63;;;;;;;26.71;33.27;94025.09;10390041;28;20017;-78
2021/05/02 16:36:15;;;;;;;17.73;3.08;;;;;;;26.70;33.17;94029.03;10409297;28;20021;-78
2021/05/02 16:41:15;;;;;;;12.30;3.23;;;;;;;26.53;33.64;94032.56;10391746;28;20063;-79
2021/05/02 16:46:18;;;;;;;25.67;10.60;;;;;;;26.31;34.74;94043.53;10408379;28;20041;-78
2021/05/02 16:51:19;;;;;;;22.98;6.07;;;;;;;26.08;34.54;94046.63;10409366;28;20033;-78
2021/05/02 16:56:19;;;;;;;32.73;6.70;;;;;;;25.85;34.88;94044.97;10408850;28;20034;-79
2021/05/02 17:01:22;;;;;;;15.95;4.38;;;;;;;25.83;35.92;94041.84;10408149;28;20039;-78
2021/05/02 17:06:22;;;;;;;20.33;7.30;;;;;;;25.68;35.58;94038.22;10408386;28;20044;-78
2021/05/02 17:11:23;;;;;;;22.65;5.43;;;;;;;25.53;35.77;94053.09;10407940;28;20029;-78
2021/05/02 17:16:23;;;;;;;22.87;5.47;;;;;;;25.26;36.43;94039.59;10389535;28;20037;-78
2021/05/02 17:21:26;;;;;;;23.13;6.73;;;;;;;25.12;36.73;94048.53;10408168;28;20107;-79
2021/05/02 17:26:26;;;;;;;27.48;6.60;;;;;;;24.80;39.46;94059.31;10407387;28;20036;-78
2021/05/02 17:31:27;;;;;;;20.77;3.97;;;;;;;24.59;38.14;94046.97;10366077;28;20026;-78
2021/05/02 17:36:27;;;;;;;26.27;6.57;;;;;;;24.52;38.07;94074.38;10367044;28;20404;-78
2021/05/02 17:41:28;;;;;;;20.27;4.10;;;;;;;24.47;38.25;94080.19;10366800;28;20276;-78
2021/05/02 17:46:28;;;;;;;24.23;9.00;;;;;;;24.28;40.12;94082.00;10324473;28;20661;-78
2021/05/02 17:51:28;;;;;;;31.33;12.23;;;;;;;24.23;40.98;94088.59;10326405;28;20113;-79
2021/05/02 17:56:29;;;;;;;59.07;32.07;;;;;;;24.11;40.41;94101.81;10325541;28;20038;-79
2021/05/02 18:01:31;;;;;;;42.53;19.60;;;;;;;24.06;39.55;94109.22;10324261;28;20890;-79
2021/05/02 18:06:32;;;;;;;34.45;12.90;;;;;;;23.94;40.38;94131.41;10326066;28;20367;-79
2021/05/02 18:11:32;;;;;;;26.30;6.33;;;;;;;23.84;39.86;94119.09;10307865;28;20513;-79
2021/05/02 18:16:33;;;;;;;28.10;7.47;;;;;;;23.64;40.99;94134.13;10325112;28;20429;-79
2021/05/02 18:21:33;;;;;;;27.88;8.88;;;;;;;23.53;40.78;94126.56;10325631;28;20030;-78
2021/05/02 18:26:36;;;;;;;34.20;12.60;;;;;;;23.29;41.38;94129.72;10326564;28;20030;-78
2021/05/02 18:31:36;;;;;;;19.52;4.80;;;;;;;23.18;41.49;94138.59;10365952;28;20025;-79
2021/05/02 18:36:39;;;;;;;13.02;3.00;;;;;;;23.03;41.16;94142.25;10364427;28;20022;-79
2021/05/02 18:41:40;;;;;;;20.55;3.97;;;;;;;22.76;40.10;94139.47;10367523;28;20058;-78
2021/05/02 18:46:41;;;;;;;18.58;3.53;;;;;;;22.71;40.13;94156.19;10412565;28;20120;-78
2021/05/02 18:51:42;;;;;;;18.80;3.08;;;;;;;22.60;40.25;94158.75;10414562;28;20132;-78
2021/05/02 18:56:42;;;;;;;8.98;2.72;;;;;;;22.38;39.93;94179.47;10413694;28;20036;-79
2021/05/02 19:01:43;;;;;;;13.38;3.45;;;;;;;22.31;39.55;94185.59;10413260;28;20034;-78
2021/05/02 19:06:43;;;;;;;18.00;3.20;;;;;;;22.25;40.06;94195.22;10413071;28;20056;-79
2021/05/02 19:11:43;;;;;;;21.05;4.65;;;;;;;22.11;41.71;94194.94;10413467;28;20045;-78
2021/05/02 19:16:46;;;;;;;15.00;2.37;;;;;;;21.93;39.45;94192.63;10412781;28;20033;-78
2021/05/02 19:21:46;;;;;;;15.23;4.80;;;;;;;21.74;40.82;94215.31;10412393;28;20294;-79
2021/05/02 19:26:47;;;;;;;17.93;2.97;;;;;;;21.42;41.53;94223.53;10409820;28;20067;-79
2021/05/02 19:31:47;;;;;;;13.77;2.33;;;;;;;21.23;41.98;94240.66;10371462;28;20281;-79
2021/05/02 19:36:47;;;;;;;14.80;2.90;;;;;;;21.16;42.63;94249.47;10370903;28;20120;-80
2021/05/02 19:41:48;;;;;;;17.97;2.53;;;;;;;20.97;42.38;94269.31;10371086;28;20065;-78
2021/05/02 19:46:48;;;;;;;9.17;2.50;;;;;;;20.90;43.26;94268.31;10370411;28;20030;-79
2021/05/02 19:51:48;;;;;;;22.63;4.77;;;;;;;20.80;44.67;94275.06;10369672;28;20071;-79
2021/05/02 19:56:49;;;;;;;24.73;3.20;;;;;;;20.89;46.35;94272.16;10370893;28;20091;-79
2021/05/02 20:01:50;;;;;;;19.73;2.77;;;;;;;20.82;47.52;94284.50;10370118;28;20068;-79
2021/05/02 20:06:51;;;;;;;14.20;3.72;;;;;;;20.70;48.82;94281.06;10369845;28;20022;-78
2021/05/02 20:11:51;;;;;;;15.73;3.27;;;;;;;20.60;46.25;94277.66;10370465;28;20428;-78
2021/05/02 20:16:51;;;;;;;20.08;4.50;;;;;;;20.57;45.40;94286.53;10369329;28;20040;-78
2021/05/02 20:21:52;;;;;;;14.97;3.33;;;;;;;20.52;45.38;94291.44;10369194;28;20045;-79
2021/05/02 20:26:52;;;;;;;14.80;2.47;;;;;;;20.49;45.61;94285.53;10369416;28;20026;-78
2021/05/02 20:31:53;;;;;;;12.25;3.38;;;;;;;20.43;45.25;94294.34;10369024;28;20041;-78
2021/05/02 20:36:56;;;;;;;11.13;2.30;;;;;;;20.41;44.69;94285.69;10368694;28;20818;-78
2021/05/02 20:41:56;;;;;;;19.90;3.70;;;;;;;20.37;44.18;94284.78;10370571;28;20034;-77
2021/05/02 20:46:57;;;;;;;12.60;3.47;;;;;;;20.27;45.86;94288.81;10391697;28;20368;-78
2021/05/02 20:51:57;;;;;;;11.60;2.50;;;;;;;20.22;44.35;94305.41;10408922;28;20279;-78
2021/05/02 20:56:57;;;;;;;9.57;2.90;;;;;;;20.01;46.18;94316.47;10409180;28;20856;-78
2021/05/02 21:01:58;;;;;;;11.20;3.00;;;;;;;20.04;46.87;94307.59;10408567;28;20487;-78
2021/05/02 21:07:00;;;;;;;12.33;3.97;;;;;;;19.78;47.96;94309.53;10407894;28;20809;-78
2021/05/02 21:12:00;;;;;;;15.18;3.83;;;;;;;19.60;48.36;94303.53;10408919;28;20049;-79
2021/05/02 21:17:01;;;;;;;11.63;2.58;;;;;;;19.54;48.47;94306.84;10408291;28;20148;-79
2021/05/02 21:22:01;;;;;;;18.47;2.87;;;;;;;19.42;51.20;94311.16;10390506;28;20028;-79
2021/05/02 21:27:01;;;;;;;14.60;3.27;;;;;;;19.31;52.19;94312.72;10402983;28;20088;-79
2021/05/02 21:32:02;;;;;;;18.30;3.58;;;;;;;19.20;54.05;94308.84;10367282;28;20022;-78
2021/05/02 21:37:02;;;;;;;20.40;3.05;;;;;;;19.19;51.94;94313.50;10366973;28;20484;-78
2021/05/02 21:42:03;;;;;;;8.27;2.70;;;;;;;19.18;54.77;94317.34;10366431;28;20038;-79
2021/05/02 21:47:05;;;;;;;18.60;4.18;;;;;;;19.07;53.05;94319.72;10366818;28;20872;-78
2021/05/02 21:52:06;;;;;;;14.68;3.55;;;;;;;18.93;52.65;94314.56;10366777;28;20161;-78
2021/05/02 21:57:07;;;;;;;11.05;2.65;;;;;;;18.83;54.26;94314.97;10366091;28;20092;-78
2021/05/02 22:02:08;;;;;;;12.77;2.58;;;;;;;18.84;51.25;94327.47;10366922;28;20394;-78
2021/05/02 22:07:08;;;;;;;12.57;2.70;;;;;;;18.85;54.22;94328.25;10366385;28;20025;-78
2021/05/02 22:12:09;;;;;;;11.67;2.97;;;;;;;18.77;50.77;94346.28;10366044;28;20268;-78
2021/05/02 22:17:09;;;;;;;11.93;2.08;;;;;;;18.71;47.30;94339.44;10370895;28;20041;-78
2021/05/02 22:22:09;;;;;;;10.00;2.03;;;;;;;18.62;45.78;94348.47;10374097;28;20029;-79
2021/05/02 22:27:10;;;;;;;16.57;2.33;;;;;;;18.56;45.11;94338.94;10379753;28;20533;-79
2021/05/02 22:32:10;;;;;;;11.60;1.80;;;;;;;18.57;43.34;94345.97;10415148;28;20033;-79
2021/05/02 22:37:10;;;;;;;11.07;1.97;;;;;;;18.46;43.13;94342.06;10414392;28;20411;-79
2021/05/02 22:42:11;;;;;;;16.37;2.80;;;;;;;18.42;42.48;94366.41;10413964;28;20053;-78
2021/05/02 22:47:12;;;;;;;10.20;1.87;;;;;;;18.37;41.91;94358.44;10414719;28;20103;-79
2021/05/02 22:52:12;;;;;;;12.30;2.00;;;;;;;18.36;42.12;94337.00;10414565;28;20359;-79
2021/05/02 22:57:12;;;;;;;11.27;2.63;;;;;;;18.35;44.29;94332.69;10413547;28;20037;-79
2021/05/02 23:02:13;;;;;;;13.87;2.00;;;;;;;18.38;41.71;94348.38;10413695;28;20029;-79
2021/05/02 23:07:14;;;;;;;11.40;1.87;;;;;;;18.34;41.68;94371.94;10413226;28;20112;-77